Time;durP1;ratioP1;P1;durP2;ratioP2;P2;SDS_P1;SDS_P2;PMS_P1;PMS_P2;Temp;Humidity;BMP_temperature;BMP_pressure;BME280_temperature;BME280_humidity;BME280_pressure;Samples;Min_cycle;Max_cycle;Signal;HPM_P1;HPM_P2
2022/02/21 00:02:19;;;;;;;0.93;0.30;;;;;;;;;;5031601;28;20502;-75
2022/02/21 00:04:45;;;;;;;0.32;0.20;;;;;;;;;;5032254;28;20048;-74
2022/02/21 00:07:11;;;;;;;1.40;0.28;;;;;;;;;;5030526;28;20432;-74
2022/02/21 00:09:39;;;;;;;1.25;0.35;;;;;;;;;;5017759;28;20041;-75
2022/02/21 00:12:05;;;;;;;0.47;0.20;;;;;;;;;;5030577;28;20033;-72
2022/02/21 00:14:31;;;;;;;1.17;0.30;;;;;;;;;;5045464;28;20048;-73
2022/02/21 00:17:00;;;;;;;1.40;0.45;;;;;;;;;;5045369;28;20048;-73
2022/02/21 00:19:26;;;;;;;1.75;0.75;;;;;;;;;;5028824;28;20040;-71
2022/02/21 00:21:52;;;;;;;2.30;0.50;;;;;;;;;;5030102;28;20037;-73
2022/02/21 00:24:18;;;;;;;0.35;0.30;;;;;;;;;;5028434;28;20052;-73
2022/02/21 00:26:44;;;;;;;0.52;0.30;;;;;;;;;;5029552;28;20489;-73
2022/02/21 00:29:12;;;;;;;1.10;0.40;;;;;;;;;;5014583;28;20116;-74
2022/02/21 00:31:41;;;;;;;0.40;0.20;;;;;;;;;;5045829;28;20037;-74
2022/02/21 00:34:10;;;;;;;0.65;0.50;;;;;;;;;;5044804;28;20152;-74
2022/02/21 00:36:36;;;;;;;0.52;0.28;;;;;;;;;;5029386;28;20040;-74
2022/02/21 00:39:03;;;;;;;2.13;0.22;;;;;;;;;;5028925;28;20029;-74
2022/02/21 00:41:29;;;;;;;1.83;0.75;;;;;;;;;;5029340;28;20025;-72
2022/02/21 00:43:55;;;;;;;0.38;0.20;;;;;;;;;;5029645;28;20512;-74
2022/02/21 00:46:21;;;;;;;0.88;0.35;;;;;;;;;;5029313;28;20036;-74
2022/02/21 00:48:47;;;;;;;0.77;0.30;;;;;;;;;;5028952;28;20043;-75
2022/02/21 00:51:15;;;;;;;2.63;0.52;;;;;;;;;;5030082;28;20037;-74
2022/02/21 00:53:41;;;;;;;1.30;0.52;;;;;;;;;;5029718;28;20045;-73
2022/02/21 00:56:07;;;;;;;1.00;0.20;;;;;;;;;;5029925;28;20427;-72
2022/02/21 00:58:34;;;;;;;0.28;0.20;;;;;;;;;;5044489;28;20061;-71
2022/02/21 01:01:00;;;;;;;0.57;0.40;;;;;;;;;;5030473;28;20041;-72
2022/02/21 01:03:26;;;;;;;0.75;0.22;;;;;;;;;;5029512;28;20029;-74
2022/02/21 01:05:52;;;;;;;0.45;0.35;;;;;;;;;;5044276;28;20028;-74
2022/02/21 01:08:18;;;;;;;1.75;0.30;;;;;;;;;;5028608;28;20099;-73
2022/02/21 01:10:44;;;;;;;1.45;0.32;;;;;;;;;;5029002;28;20037;-74
2022/02/21 01:13:10;;;;;;;0.52;0.20;;;;;;;;;;5028624;28;20071;-74
2022/02/21 01:15:36;;;;;;;1.85;0.68;;;;;;;;;;5029416;28;20044;-74
2022/02/21 01:18:02;;;;;;;0.47;0.25;;;;;;;;;;5028980;28;20052;-74
2022/02/21 01:20:28;;;;;;;2.15;0.32;;;;;;;;;;5028415;28;20033;-75
2022/02/21 01:22:54;;;;;;;1.50;0.65;;;;;;;;;;5028163;28;20033;-74
2022/02/21 01:25:20;;;;;;;1.10;0.30;;;;;;;;;;5028471;28;20026;-74
2022/02/21 01:27:47;;;;;;;3.55;1.30;;;;;;;;;;5028652;28;20034;-74
2022/02/21 01:30:13;;;;;;;0.43;0.32;;;;;;;;;;5029094;28;20029;-74
2022/02/21 01:32:40;;;;;;;1.23;0.65;;;;;;;;;;5029095;28;20140;-75
2022/02/21 01:35:06;;;;;;;1.50;0.50;;;;;;;;;;5029039;28;20563;-74
2022/02/21 01:37:32;;;;;;;4.05;0.20;;;;;;;;;;5029677;28;20413;-73
2022/02/21 01:39:58;;;;;;;0.55;0.30;;;;;;;;;;5044538;28;20111;-73
2022/02/21 01:42:27;;;;;;;1.02;0.30;;;;;;;;;;5027413;28;20025;-74
2022/02/21 01:44:53;;;;;;;1.38;0.65;;;;;;;;;;5028710;28;20029;-73
2022/02/21 01:47:20;;;;;;;0.70;0.40;;;;;;;;;;5027529;28;20044;-74
2022/02/21 01:49:47;;;;;;;1.75;0.20;;;;;;;;;;5028888;28;20066;-75
2022/02/21 01:52:13;;;;;;;2.00;0.30;;;;;;;;;;5043285;28;20067;-74
2022/02/21 01:54:39;;;;;;;2.08;0.20;;;;;;;;;;5043999;28;20040;-74
2022/02/21 01:57:06;;;;;;;0.60;0.30;;;;;;;;;;5029026;28;20167;-73
2022/02/21 01:59:35;;;;;;;2.95;0.68;;;;;;;;;;5027050;28;21659;-74
2022/02/21 02:02:01;;;;;;;2.03;0.50;;;;;;;;;;5028656;28;20820;-75
2022/02/21 02:04:27;;;;;;;0.22;0.20;;;;;;;;;;5029566;28;20112;-72
2022/02/21 02:06:53;;;;;;;1.75;0.68;;;;;;;;;;5027925;28;20033;-74
2022/02/21 02:09:20;;;;;;;0.60;0.20;;;;;;;;;;5028988;28;20108;-75
2022/02/21 02:11:46;;;;;;;1.30;0.45;;;;;;;;;;5027076;28;20063;-73
2022/02/21 02:14:32;;;;;;;1.83;0.30;;;;;;;;;;5028222;28;20042;-73
2022/02/21 02:17:17;;;;;;;1.17;0.45;;;;;;;;;;5013633;28;20086;-71
2022/02/21 02:19:44;;;;;;;0.85;0.63;;;;;;;;;;5028201;28;20038;-72
2022/02/21 02:22:17;;;;;;;0.52;0.38;;;;;;;;;;5028186;28;20359;-73
2022/02/21 02:24:50;;;;;;;1.55;0.38;;;;;;;;;;5027016;28;20033;-73
2022/02/21 02:27:18;;;;;;;0.55;0.30;;;;;;;;;;5026866;28;20438;-73
2022/02/21 02:29:45;;;;;;;0.25;0.20;;;;;;;;;;5013816;28;20025;-74
2022/02/21 02:32:12;;;;;;;1.58;0.40;;;;;;;;;;5027273;28;20029;-74
2022/02/21 02:34:39;;;;;;;2.42;0.52;;;;;;;;;;5027738;28;20087;-71
2022/02/21 02:37:05;;;;;;;0.20;0.20;;;;;;;;;;5027701;28;20033;-73
2022/02/21 02:39:31;;;;;;;0.60;0.30;;;;;;;;;;5027930;28;20047;-72
2022/02/21 02:41:58;;;;;;;0.25;0.20;;;;;;;;;;5027617;28;20587;-74
2022/02/21 02:44:24;;;;;;;1.75;0.68;;;;;;;;;;5028148;28;20185;-74
2022/02/21 02:46:50;;;;;;;0.80;0.40;;;;;;;;;;5026729;28;20035;-72
2022/02/21 02:49:16;;;;;;;3.13;0.40;;;;;;;;;;5028489;28;20038;-72
2022/02/21 02:51:45;;;;;;;4.32;0.63;;;;;;;;;;5027978;28;20029;-74
2022/02/21 02:54:11;;;;;;;1.27;0.70;;;;;;;;;;5026558;28;20037;-74
2022/02/21 02:56:41;;;;;;;0.60;0.40;;;;;;;;;;5027147;28;20033;-74
2022/02/21 02:59:10;;;;;;;0.43;0.40;;;;;;;;;;5026923;28;20155;-74
2022/02/21 03:01:36;;;;;;;0.85;0.50;;;;;;;;;;5026116;28;20040;-73
2022/02/21 03:04:06;;;;;;;1.60;0.75;;;;;;;;;;5026814;28;20064;-73
2022/02/21 03:06:34;;;;;;;0.93;0.40;;;;;;;;;;5025521;28;20025;-75
2022/02/21 03:09:06;;;;;;;0.47;0.35;;;;;;;;;;5026207;28;20088;-74
2022/02/21 03:11:32;;;;;;;1.88;0.60;;;;;;;;;;5027238;28;20441;-73
2022/02/21 03:14:01;;;;;;;0.60;0.30;;;;;;;;;;5027888;28;20038;-74
2022/02/21 03:16:28;;;;;;;1.15;0.50;;;;;;;;;;5028064;28;20057;-72
2022/02/21 03:18:54;;;;;;;1.70;0.52;;;;;;;;;;5027069;28;20033;-73
2022/02/21 03:21:21;;;;;;;0.30;0.30;;;;;;;;;;5026035;28;20040;-75
2022/02/21 03:23:47;;;;;;;1.75;0.47;;;;;;;;;;5026242;28;20060;-75
2022/02/21 03:26:13;;;;;;;0.75;0.32;;;;;;;;;;5026543;28;20072;-73
2022/02/21 03:28:39;;;;;;;0.80;0.40;;;;;;;;;;5027457;28;20033;-75
2022/02/21 03:31:05;;;;;;;3.17;0.50;;;;;;;;;;5042286;28;20044;-74
2022/02/21 03:33:31;;;;;;;0.45;0.35;;;;;;;;;;5042135;28;20037;-73
2022/02/21 03:35:57;;;;;;;1.90;0.30;;;;;;;;;;5041902;28;20107;-75
2022/02/21 03:38:23;;;;;;;0.40;0.20;;;;;;;;;;5026946;28;20036;-74
2022/02/21 03:40:51;;;;;;;1.52;0.55;;;;;;;;;;5027477;28;20033;-73
2022/02/21 03:43:17;;;;;;;0.55;0.30;;;;;;;;;;5026396;28;20458;-75
2022/02/21 03:45:43;;;;;;;0.95;0.50;;;;;;;;;;5026560;28;20033;-74
2022/02/21 03:48:09;;;;;;;1.17;0.43;;;;;;;;;;5030160;28;20064;-73
2022/02/21 03:50:36;;;;;;;0.57;0.30;;;;;;;;;;5030544;28;20086;-75
2022/02/21 03:53:02;;;;;;;1.27;0.55;;;;;;;;;;5015279;28;20044;-73
2022/02/21 03:55:30;;;;;;;1.10;0.57;;;;;;;;;;5031309;28;20580;-75
2022/02/21 03:57:58;;;;;;;3.60;0.47;;;;;;;;;;5030295;28;20061;-73
2022/02/21 04:00:24;;;;;;;1.52;0.20;;;;;;;;;;5029283;28;20089;-75
2022/02/21 04:02:50;;;;;;;0.70;0.30;;;;;;;;;;5030223;28;20028;-73
2022/02/21 04:05:16;;;;;;;0.93;0.45;;;;;;;;;;5028959;28;20146;-73
2022/02/21 04:07:44;;;;;;;3.53;0.95;;;;;;;;;;5030172;28;20029;-75
2022/02/21 04:10:11;;;;;;;1.30;0.43;;;;;;;;;;5030036;28;20083;-75
2022/02/21 04:12:37;;;;;;;2.03;0.40;;;;;;;;;;5029967;28;20033;-73
2022/02/21 04:15:06;;;;;;;0.35;0.20;;;;;;;;;;5045523;28;20033;-73
2022/02/21 04:17:45;;;;;;;1.20;0.30;;;;;;;;;;5030154;28;20033;-74
2022/02/21 04:20:15;;;;;;;0.32;0.25;;;;;;;;;;5029968;28;20037;-73
2022/02/21 04:22:41;;;;;;;2.22;0.65;;;;;;;;;;5030169;28;20456;-74
2022/02/21 04:25:09;;;;;;;1.63;0.40;;;;;;;;;;5030020;28;20060;-74
2022/02/21 04:27:42;;;;;;;1.08;0.35;;;;;;;;;;5029843;28;20044;-74
2022/02/21 04:30:08;;;;;;;2.05;0.30;;;;;;;;;;5030257;28;20432;-73
2022/02/21 04:32:36;;;;;;;0.57;0.20;;;;;;;;;;5044994;28;20151;-73
2022/02/21 04:35:05;;;;;;;0.40;0.30;;;;;;;;;;5030326;28;20033;-75
2022/02/21 04:37:31;;;;;;;0.65;0.30;;;;;;;;;;5015604;28;20029;-73
2022/02/21 04:39:57;;;;;;;0.50;0.20;;;;;;;;;;5029738;28;20034;-71
2022/02/21 04:42:23;;;;;;;1.70;0.22;;;;;;;;;;5030849;28;20116;-74
2022/02/21 04:44:49;;;;;;;0.70;0.30;;;;;;;;;;5029911;28;20094;-74
2022/02/21 04:47:15;;;;;;;1.27;0.65;;;;;;;;;;5045058;28;21690;-74
2022/02/21 04:49:41;;;;;;;0.80;0.50;;;;;;;;;;5030452;28;20032;-75
2022/02/21 04:52:07;;;;;;;0.30;0.30;;;;;;;;;;5028684;28;20120;-71
2022/02/21 04:54:33;;;;;;;0.68;0.30;;;;;;;;;;5044793;28;20044;-71
2022/02/21 04:56:59;;;;;;;0.43;0.35;;;;;;;;;;5028632;28;20044;-75
2022/02/21 04:59:25;;;;;;;0.85;0.32;;;;;;;;;;5029648;28;20108;-73
2022/02/21 05:01:51;;;;;;;1.48;0.30;;;;;;;;;;5028462;28;20033;-74
2022/02/21 05:04:17;;;;;;;1.13;0.25;;;;;;;;;;5030223;28;20120;-74
2022/02/21 05:06:43;;;;;;;1.30;0.40;;;;;;;;;;5029803;28;20039;-73
2022/02/21 05:09:09;;;;;;;1.10;0.60;;;;;;;;;;5029259;28;20629;-74
2022/02/21 05:11:36;;;;;;;1.10;0.47;;;;;;;;;;5029759;28;20024;-74
2022/02/21 05:14:04;;;;;;;1.33;0.65;;;;;;;;;;5028458;28;20370;-73
2022/02/21 05:16:30;;;;;;;1.42;0.70;;;;;;;;;;5029000;28;20030;-75
2022/02/21 05:18:59;;;;;;;2.22;0.40;;;;;;;;;;5028501;28;20473;-73
2022/02/21 05:21:27;;;;;;;0.57;0.28;;;;;;;;;;5029243;28;20040;-73
2022/02/21 05:23:53;;;;;;;4.03;0.77;;;;;;;;;;5028118;28;20056;-74
2022/02/21 05:26:19;;;;;;;0.90;0.47;;;;;;;;;;5029252;28;20226;-74
2022/02/21 05:28:48;;;;;;;3.28;0.60;;;;;;;;;;5029175;28;20092;-74
2022/02/21 05:31:14;;;;;;;1.52;0.50;;;;;;;;;;5029200;28;20037;-75
2022/02/21 05:33:44;;;;;;;3.53;0.80;;;;;;;;;;5028834;28;20082;-74
2022/02/21 05:36:11;;;;;;;0.55;0.30;;;;;;;;;;5043655;28;20037;-74
2022/02/21 05:38:37;;;;;;;0.77;0.30;;;;;;;;;;5044255;28;20354;-75
2022/02/21 05:41:03;;;;;;;0.57;0.40;;;;;;;;;;5027853;28;20078;-73
2022/02/21 05:43:29;;;;;;;1.73;0.40;;;;;;;;;;5027076;28;20037;-73
2022/02/21 05:45:55;;;;;;;1.45;0.50;;;;;;;;;;5028463;28;20087;-74
2022/02/21 05:48:21;;;;;;;0.95;0.30;;;;;;;;;;5027418;28;20030;-73
2022/02/21 05:50:48;;;;;;;0.50;0.30;;;;;;;;;;5028183;28;20118;-75
2022/02/21 05:53:14;;;;;;;1.35;0.30;;;;;;;;;;5029221;28;20037;-75
2022/02/21 05:55:40;;;;;;;1.58;0.70;;;;;;;;;;5013340;28;20052;-74
2022/02/21 05:58:06;;;;;;;0.57;0.55;;;;;;;;;;5027834;28;20041;-74
2022/02/21 06:00:32;;;;;;;1.05;0.30;;;;;;;;;;5044327;28;20029;-74
2022/02/21 06:03:03;;;;;;;0.22;0.22;;;;;;;;;;5028219;28;20039;-74
2022/02/21 06:05:31;;;;;;;0.65;0.22;;;;;;;;;;5028168;28;20115;-72
2022/02/21 06:07:57;;;;;;;1.05;0.40;;;;;;;;;;5027805;28;20037;-74
2022/02/21 06:10:23;;;;;;;1.08;0.50;;;;;;;;;;5027326;28;20120;-74
2022/02/21 06:12:49;;;;;;;2.13;1.20;;;;;;;;;;5027163;28;20041;-73
2022/02/21 06:15:15;;;;;;;0.88;0.40;;;;;;;;;;5026964;28;21668;-74
2022/02/21 06:17:41;;;;;;;1.38;0.68;;;;;;;;;;5027927;28;20096;-73
2022/02/21 06:20:10;;;;;;;1.30;0.75;;;;;;;;;;5026941;28;20591;-73
2022/02/21 06:22:36;;;;;;;0.75;0.45;;;;;;;;;;5043780;28;20466;-75
2022/02/21 06:25:04;;;;;;;7.43;0.57;;;;;;;;;;5013225;28;20715;-73
2022/02/21 06:27:30;;;;;;;0.22;0.20;;;;;;;;;;5028127;28;20279;-74
2022/02/21 06:29:57;;;;;;;0.38;0.32;;;;;;;;;;5027247;28;20438;-75
2022/02/21 06:32:23;;;;;;;0.93;0.40;;;;;;;;;;5028139;28;20122;-73
2022/02/21 06:34:51;;;;;;;1.75;0.60;;;;;;;;;;5027974;28;20553;-73
2022/02/21 06:37:17;;;;;;;1.30;0.30;;;;;;;;;;5027203;28;20124;-75
2022/02/21 06:39:43;;;;;;;1.05;0.43;;;;;;;;;;5026307;28;20070;-75
2022/02/21 06:42:09;;;;;;;0.73;0.35;;;;;;;;;;5027047;28;20040;-73
2022/02/21 06:44:35;;;;;;;4.30;0.30;;;;;;;;;;5043108;28;20044;-73
2022/02/21 06:47:04;;;;;;;1.67;0.40;;;;;;;;;;5011150;28;20031;-74
2022/02/21 06:49:30;;;;;;;0.60;0.28;;;;;;;;;;5026866;28;20112;-74
2022/02/21 06:51:56;;;;;;;1.63;0.57;;;;;;;;;;5041397;28;20517;-71
2022/02/21 06:54:22;;;;;;;0.85;0.30;;;;;;;;;;5026714;28;20523;-75
2022/02/21 06:56:49;;;;;;;0.63;0.32;;;;;;;;;;5027793;28;20674;-74
2022/02/21 06:59:17;;;;;;;0.52;0.35;;;;;;;;;;5026405;28;20036;-75
2022/02/21 07:01:43;;;;;;;1.83;0.32;;;;;;;;;;5026296;28;20068;-74
2022/02/21 07:04:09;;;;;;;0.28;0.20;;;;;;;;;;5026134;28;20148;-75
2022/02/21 07:06:38;;;;;;;0.40;0.40;;;;;;;;;;5041067;28;20120;-74
2022/02/21 07:09:04;;;;;;;0.60;0.38;;;;;;;;;;5026048;28;20033;-74
2022/02/21 07:11:33;;;;;;;1.20;0.40;;;;;;;;;;5026298;28;20037;-74
2022/02/21 07:13:59;;;;;;;1.08;0.40;;;;;;;;;;5025743;28;20132;-74
2022/02/21 07:16:26;;;;;;;1.30;0.40;;;;;;;;;;5027263;28;20126;-75
2022/02/21 07:18:52;;;;;;;0.95;0.40;;;;;;;;;;5026533;28;20043;-75
2022/02/21 07:21:18;;;;;;;0.93;0.30;;;;;;;;;;5027994;28;20053;-72
2022/02/21 07:23:44;;;;;;;3.80;0.85;;;;;;;;;;5031285;28;20788;-73
2022/02/21 07:26:10;;;;;;;1.27;0.40;;;;;;;;;;5016631;28;20747;-75
2022/02/21 07:28:36;;;;;;;4.63;0.98;;;;;;;;;;5030814;28;20033;-72
2022/02/21 07:31:06;;;;;;;14.43;1.70;;;;;;;;;;5031622;28;20033;-73
2022/02/21 07:33:32;;;;;;;3.80;1.27;;;;;;;;;;5015708;28;20048;-72
2022/02/21 07:35:58;;;;;;;12.60;4.07;;;;;;;;;;5030379;28;20033;-74
2022/02/21 07:38:24;;;;;;;20.75;3.50;;;;;;;;;;5030853;28;20442;-71
2022/02/21 07:40:51;;;;;;;8.00;2.17;;;;;;;;;;5016746;28;20037;-74
2022/02/21 07:43:17;;;;;;;7.57;2.20;;;;;;;;;;5030967;28;20051;-74
2022/02/21 07:45:46;;;;;;;9.90;2.30;;;;;;;;;;5030254;28;20029;-72
2022/02/21 07:48:12;;;;;;;16.83;2.35;;;;;;;;;;5031983;28;20042;-74
2022/02/21 07:50:38;;;;;;;12.90;2.75;;;;;;;;;;5030390;28;20041;-74
2022/02/21 07:53:04;;;;;;;9.05;2.75;;;;;;;;;;5029547;28;20041;-74
2022/02/21 07:55:30;;;;;;;15.85;2.20;;;;;;;;;;5030310;28;20875;-73
2022/02/21 07:57:59;;;;;;;12.02;3.00;;;;;;;;;;5031120;28;20029;-74
2022/02/21 08:00:28;;;;;;;6.88;2.20;;;;;;;;;;5015507;28;20033;-72
2022/02/21 08:02:54;;;;;;;10.25;1.90;;;;;;;;;;5028999;28;20465;-74
2022/02/21 08:05:20;;;;;;;14.73;4.15;;;;;;;;;;5031288;28;20849;-72
2022/02/21 08:07:46;;;;;;;19.00;3.08;;;;;;;;;;5030179;28;20958;-74
2022/02/21 08:10:15;;;;;;;13.20;2.67;;;;;;;;;;5030101;28;20038;-73
2022/02/21 08:12:43;;;;;;;12.73;2.63;;;;;;;;;;5030176;28;20029;-72
2022/02/21 08:15:09;;;;;;;8.48;3.25;;;;;;;;;;5030318;28;20033;-74
2022/02/21 08:17:39;;;;;;;14.98;1.80;;;;;;;;;;5014850;28;20111;-73
2022/02/21 08:20:05;;;;;;;13.13;5.60;;;;;;;;;;5030719;28;20040;-73
2022/02/21 08:22:31;;;;;;;7.50;1.73;;;;;;;;;;5029862;28;20132;-74
2022/02/21 08:24:57;;;;;;;8.98;1.35;;;;;;;;;;5029910;28;20108;-74
2022/02/21 08:27:23;;;;;;;10.50;1.70;;;;;;;;;;5029532;28;20417;-73
2022/02/21 08:29:49;;;;;;;11.98;2.67;;;;;;;;;;5030763;28;20038;-74
2022/02/21 08:32:18;;;;;;;7.57;1.80;;;;;;;;;;5029136;28;20028;-74
2022/02/21 08:34:44;;;;;;;6.63;1.80;;;;;;;;;;5029701;28;20069;-73
2022/02/21 08:37:13;;;;;;;8.18;1.70;;;;;;;;;;5029310;28;20106;-74
2022/02/21 08:39:41;;;;;;;12.13;2.97;;;;;;;;;;5029623;28;20776;-73
2022/02/21 08:42:08;;;;;;;11.07;2.53;;;;;;;;;;5029546;28;20030;-73
2022/02/21 08:44:36;;;;;;;11.05;1.73;;;;;;;;;;5014145;28;20053;-72
2022/02/21 08:47:02;;;;;;;8.50;1.48;;;;;;;;;;5030421;28;20219;-74
2022/02/21 08:49:28;;;;;;;3.67;1.38;;;;;;;;;;5031002;28;20026;-74
2022/02/21 08:51:57;;;;;;;5.07;1.65;;;;;;;;;;5028502;28;20057;-73
2022/02/21 08:54:23;;;;;;;3.45;1.33;;;;;;;;;;5029094;28;20030;-74
2022/02/21 08:56:50;;;;;;;5.50;1.35;;;;;;;;;;5029791;28;20060;-72
2022/02/21 08:59:17;;;;;;;4.68;0.93;;;;;;;;;;5029282;28;20064;-72
2022/02/21 09:01:44;;;;;;;6.75;1.38;;;;;;;;;;5028324;28;20029;-71
2022/02/21 09:04:16;;;;;;;6.72;1.67;;;;;;;;;;5029132;28;20033;-73
2022/02/21 09:06:42;;;;;;;8.60;1.48;;;;;;;;;;5028932;28;20083;-74
2022/02/21 09:09:08;;;;;;;2.70;0.90;;;;;;;;;;5028825;28;20369;-74
2022/02/21 09:11:34;;;;;;;8.57;1.33;;;;;;;;;;5028781;28;20043;-73
2022/02/21 09:14:00;;;;;;;2.78;1.45;;;;;;;;;;5027575;28;20128;-75
2022/02/21 09:16:26;;;;;;;4.53;1.13;;;;;;;;;;5027561;28;20442;-73
2022/02/21 09:18:52;;;;;;;7.07;0.88;;;;;;;;;;5028177;28;20080;-74
2022/02/21 09:21:18;;;;;;;4.07;1.08;;;;;;;;;;5027242;28;20044;-70
2022/02/21 09:23:44;;;;;;;4.22;1.63;;;;;;;;;;5028928;28;20457;-73
2022/02/21 09:26:10;;;;;;;3.97;0.80;;;;;;;;;;5027171;28;20037;-72
2022/02/21 09:28:38;;;;;;;3.22;1.23;;;;;;;;;;5013600;28;20043;-74
2022/02/21 09:31:04;;;;;;;6.85;1.23;;;;;;;;;;5027687;28;20432;-74
2022/02/21 09:33:30;;;;;;;2.53;1.15;;;;;;;;;;5029181;28;20038;-74
2022/02/21 09:36:01;;;;;;;3.72;0.68;;;;;;;;;;5027954;28;20053;-71
2022/02/21 09:38:27;;;;;;;2.10;1.35;;;;;;;;;;5026924;28;20773;-75
2022/02/21 09:40:56;;;;;;;2.83;0.90;;;;;;;;;;5027721;28;20060;-72
2022/02/21 09:43:26;;;;;;;1.65;1.35;;;;;;;;;;5042720;28;20128;-74
2022/02/21 09:46:01;;;;;;;2.33;0.90;;;;;;;;;;5027277;28;20706;-74
2022/02/21 09:48:28;;;;;;;4.10;1.08;;;;;;;;;;5027583;28;20435;-74
2022/02/21 09:50:59;;;;;;;6.45;1.02;;;;;;;;;;5028259;28;20044;-72
2022/02/21 09:53:27;;;;;;;7.50;1.55;;;;;;;;;;5028157;28;20095;-74
2022/02/21 09:55:53;;;;;;;2.25;0.70;;;;;;;;;;5013785;28;20124;-74
2022/02/21 09:58:20;;;;;;;4.55;1.00;;;;;;;;;;5028153;28;20029;-75
2022/02/21 10:00:46;;;;;;;1.90;0.95;;;;;;;;;;5028018;28;20086;-72
2022/02/21 10:03:12;;;;;;;4.57;1.05;;;;;;;;;;5028171;28;20052;-72
2022/02/21 10:05:38;;;;;;;6.10;0.80;;;;;;;;;;5027997;28;20029;-73
2022/02/21 10:08:07;;;;;;;5.95;1.27;;;;;;;;;;5028300;28;20016;-74
2022/02/21 10:10:35;;;;;;;6.85;1.05;;;;;;;;;;5027709;28;20037;-73
2022/02/21 10:13:01;;;;;;;3.50;0.88;;;;;;;;;;5028462;28;20130;-72
2022/02/21 10:15:34;;;;;;;2.58;0.45;;;;;;;;;;5027564;28;20138;-72
2022/02/21 10:18:14;;;;;;;2.15;0.88;;;;;;;;;;5027101;28;20124;-74
2022/02/21 10:21:00;;;;;;;1.35;0.57;;;;;;;;;;5027486;28;20541;-74
2022/02/21 10:23:36;;;;;;;1.65;0.70;;;;;;;;;;5027465;28;20033;-74
2022/02/21 10:26:04;;;;;;;3.00;1.05;;;;;;;;;;5025361;28;20155;-74
2022/02/21 10:28:40;;;;;;;5.18;0.60;;;;;;;;;;5027863;28;20042;-74
2022/02/21 10:31:17;;;;;;;3.42;0.98;;;;;;;;;;5028193;28;20044;-74
2022/02/21 10:33:49;;;;;;;1.58;1.48;;;;;;;;;;5042418;28;20553;-73
2022/02/21 10:36:37;;;;;;;1.40;0.47;;;;;;;;;;5043149;28;20036;-74
2022/02/21 10:39:05;;;;;;;3.28;0.90;;;;;;;;;;5027396;28;20024;-74
2022/02/21 10:41:41;;;;;;;2.03;0.55;;;;;;;;;;5012371;28;20033;-74
2022/02/21 10:44:14;;;;;;;3.42;0.95;;;;;;;;;;5012677;28;20271;-74
2022/02/21 10:46:43;;;;;;;1.92;0.32;;;;;;;;;;5027675;28;20040;-74
2022/02/21 10:49:12;;;;;;;3.15;0.60;;;;;;;;;;5027150;28;20089;-72
2022/02/21 10:51:38;;;;;;;3.35;0.82;;;;;;;;;;5042329;28;20442;-73
2022/02/21 10:54:09;;;;;;;1.55;0.90;;;;;;;;;;5026787;28;20048;-73
2022/02/21 10:56:44;;;;;;;3.53;1.05;;;;;;;;;;5026965;28;20036;-74
2022/02/21 10:59:31;;;;;;;4.18;0.80;;;;;;;;;;5026558;28;20036;-74
2022/02/21 11:01:57;;;;;;;4.25;0.50;;;;;;;;;;5026949;28;20042;-73
2022/02/21 11:04:26;;;;;;;3.00;0.52;;;;;;;;;;5026979;28;20037;-74
2022/02/21 11:06:52;;;;;;;1.10;0.43;;;;;;;;;;5028019;28;20439;-74
2022/02/21 11:09:20;;;;;;;2.80;0.77;;;;;;;;;;5026885;28;20436;-73
2022/02/21 11:11:51;;;;;;;4.47;0.90;;;;;;;;;;5027430;28;20396;-74
2022/02/21 11:14:23;;;;;;;1.40;0.85;;;;;;;;;;5026186;28;20045;-74
2022/02/21 11:16:49;;;;;;;7.97;0.88;;;;;;;;;;5042746;28;20515;-74
2022/02/21 11:19:16;;;;;;;2.08;0.82;;;;;;;;;;5027558;28;20038;-74
2022/02/21 11:21:46;;;;;;;2.00;0.73;;;;;;;;;;5027884;28;20091;-71
2022/02/21 11:24:13;;;;;;;4.05;0.70;;;;;;;;;;5026790;28;20146;-73
2022/02/21 11:26:42;;;;;;;2.00;0.65;;;;;;;;;;5027132;28;20040;-72
2022/02/21 11:29:16;;;;;;;0.93;0.47;;;;;;;;;;5013480;28;20056;-74
2022/02/21 11:31:44;;;;;;;2.17;0.63;;;;;;;;;;5026859;28;20041;-74
2022/02/21 11:34:10;;;;;;;1.98;0.80;;;;;;;;;;5027326;28;20109;-71
2022/02/21 11:36:42;;;;;;;2.70;0.60;;;;;;;;;;5027793;28;20041;-73
2022/02/21 11:39:22;;;;;;;2.03;0.70;;;;;;;;;;5026864;28;20044;-74
2022/02/21 11:42:02;;;;;;;1.77;0.38;;;;;;;;;;5027294;28;20026;-73
2022/02/21 11:44:30;;;;;;;2.55;0.63;;;;;;;;;;5027731;28;20033;-73
2022/02/21 11:47:22;;;;;;;2.63;1.00;;;;;;;;;;5057414;28;20088;-74
2022/02/21 11:49:58;;;;;;;3.72;0.40;;;;;;;;;;5017607;28;20060;-73
2022/02/21 11:52:27;;;;;;;5.57;0.80;;;;;;;;;;5026958;28;20029;-74
2022/02/21 11:54:54;;;;;;;1.05;0.43;;;;;;;;;;5027534;28;20470;-72
2022/02/21 11:57:20;;;;;;;1.67;1.20;;;;;;;;;;5025928;28;20382;-74
2022/02/21 11:59:46;;;;;;;3.40;0.50;;;;;;;;;;5011387;28;20631;-73
2022/02/21 12:02:17;;;;;;;3.25;0.95;;;;;;;;;;5027161;28;20479;-72
2022/02/21 12:04:56;;;;;;;2.88;0.82;;;;;;;;;;5026520;28;20026;-75
2022/02/21 12:07:31;;;;;;;3.35;0.50;;;;;;;;;;5027401;28;20634;-74
2022/02/21 12:10:21;;;;;;;2.13;0.40;;;;;;;;;;5029742;28;20120;-73
2022/02/21 12:12:59;;;;;;;1.65;0.55;;;;;;;;;;5030453;28;21706;-73
2022/02/21 12:15:27;;;;;;;2.00;0.60;;;;;;;;;;5029437;28;20033;-74
2022/02/21 12:18:03;;;;;;;4.35;0.60;;;;;;;;;;5030990;28;20033;-72
2022/02/21 12:20:32;;;;;;;3.05;0.45;;;;;;;;;;5014733;28;20032;-74
2022/02/21 12:23:16;;;;;;;2.22;0.50;;;;;;;;;;5045964;28;20037;-74
2022/02/21 12:25:43;;;;;;;2.53;0.60;;;;;;;;;;5029782;28;20025;-73
2022/02/21 12:28:10;;;;;;;1.25;0.50;;;;;;;;;;5030278;28;20045;-74
2022/02/21 12:30:39;;;;;;;1.10;0.65;;;;;;;;;;5030378;28;20040;-73
2022/02/21 12:33:06;;;;;;;2.08;0.40;;;;;;;;;;5029998;28;20064;-74
2022/02/21 12:35:44;;;;;;;1.02;0.30;;;;;;;;;;5029045;28;20037;-74
2022/02/21 12:38:10;;;;;;;1.85;0.57;;;;;;;;;;5029723;28;20029;-73
2022/02/21 12:40:36;;;;;;;1.20;0.47;;;;;;;;;;5029103;28;20148;-74
2022/02/21 12:43:05;;;;;;;1.52;0.30;;;;;;;;;;5030301;28;20028;-73
2022/02/21 12:45:42;;;;;;;2.65;0.43;;;;;;;;;;5029211;28;20113;-71
2022/02/21 12:48:10;;;;;;;1.38;0.60;;;;;;;;;;5030401;28;20445;-74
2022/02/21 12:50:36;;;;;;;1.40;0.40;;;;;;;;;;5029850;28;20080;-73
2022/02/21 12:53:04;;;;;;;1.20;0.40;;;;;;;;;;5029322;28;20044;-75
2022/02/21 12:55:30;;;;;;;1.63;0.35;;;;;;;;;;5028586;28;20091;-75
2022/02/21 12:57:56;;;;;;;2.55;0.57;;;;;;;;;;5044273;28;20040;-75
2022/02/21 13:00:32;;;;;;;1.70;0.70;;;;;;;;;;5029488;28;20037;-73
2022/02/21 13:02:59;;;;;;;5.43;0.70;;;;;;;;;;5045331;28;20472;-73
2022/02/21 13:05:29;;;;;;;0.60;0.30;;;;;;;;;;5044454;28;20036;-72
2022/02/21 13:07:55;;;;;;;1.38;0.63;;;;;;;;;;5028395;28;20029;-74
2022/02/21 13:10:21;;;;;;;1.48;0.30;;;;;;;;;;5028016;28;20033;-75
2022/02/21 13:12:49;;;;;;;1.33;0.68;;;;;;;;;;5044853;28;20032;-74
2022/02/21 13:15:15;;;;;;;3.00;0.63;;;;;;;;;;5029451;28;20038;-75
2022/02/21 13:17:42;;;;;;;0.95;0.60;;;;;;;;;;5044361;28;20068;-72
2022/02/21 13:20:11;;;;;;;1.27;0.50;;;;;;;;;;5029620;28;20045;-73
2022/02/21 13:22:38;;;;;;;2.25;1.10;;;;;;;;;;5029019;28;20048;-74
2022/02/21 13:25:05;;;;;;;2.30;1.13;;;;;;;;;;5028967;28;20021;-74
2022/02/21 13:27:33;;;;;;;2.13;0.40;;;;;;;;;;5029367;28;20528;-75
2022/02/21 13:29:59;;;;;;;1.40;0.60;;;;;;;;;;5028219;28;20370;-74
2022/02/21 13:32:29;;;;;;;1.65;0.45;;;;;;;;;;5028868;28;20468;-75
2022/02/21 13:34:58;;;;;;;5.07;0.77;;;;;;;;;;5028833;28;20033;-75
2022/02/21 13:37:27;;;;;;;1.75;0.30;;;;;;;;;;5028428;28;20040;-73
2022/02/21 13:39:55;;;;;;;1.35;0.40;;;;;;;;;;5028537;28;20047;-72
2022/02/21 13:42:24;;;;;;;0.70;0.35;;;;;;;;;;5028313;28;20561;-74
2022/02/21 13:44:51;;;;;;;1.13;0.47;;;;;;;;;;5028953;28;20044;-75
2022/02/21 13:47:29;;;;;;;5.72;0.50;;;;;;;;;;5028477;28;20030;-74
2022/02/21 13:49:55;;;;;;;1.60;0.55;;;;;;;;;;5028397;28;20032;-73
2022/02/21 13:52:21;;;;;;;0.75;0.65;;;;;;;;;;5028385;28;20052;-74
2022/02/21 13:54:48;;;;;;;1.77;0.40;;;;;;;;;;5029226;28;20151;-74
2022/02/21 13:57:18;;;;;;;1.48;0.60;;;;;;;;;;5028335;28;20086;-73
2022/02/21 13:59:47;;;;;;;1.25;0.30;;;;;;;;;;5028701;28;20026;-74
2022/02/21 14:02:39;;;;;;;1.52;0.63;;;;;;;;;;5028906;28;20091;-75
2022/02/21 14:05:05;;;;;;;4.03;0.60;;;;;;;;;;5042631;28;20065;-75
2022/02/21 14:07:31;;;;;;;2.13;0.60;;;;;;;;;;5044235;28;20078;-74
2022/02/21 14:10:11;;;;;;;0.90;0.30;;;;;;;;;;5027787;28;20044;-74
2022/02/21 14:12:37;;;;;;;0.98;0.50;;;;;;;;;;5028274;28;20029;-75
2022/02/21 14:15:03;;;;;;;1.45;0.45;;;;;;;;;;5028656;28;20877;-75
2022/02/21 14:17:31;;;;;;;0.90;0.52;;;;;;;;;;5042984;28;20075;-74
2022/02/21 14:19:58;;;;;;;1.60;0.55;;;;;;;;;;5028414;28;20094;-74
2022/02/21 14:22:29;;;;;;;1.83;0.65;;;;;;;;;;5028115;28;20638;-74
2022/02/21 14:24:55;;;;;;;2.63;0.60;;;;;;;;;;5013613;28;20026;-74
2022/02/21 14:27:21;;;;;;;1.38;0.57;;;;;;;;;;5027579;28;20021;-74
2022/02/21 14:29:47;;;;;;;1.60;0.43;;;;;;;;;;5043508;28;20025;-74
2022/02/21 14:32:13;;;;;;;1.88;0.40;;;;;;;;;;5027727;28;20578;-74
2022/02/21 14:34:43;;;;;;;1.55;0.63;;;;;;;;;;5026974;28;20040;-73
2022/02/21 14:37:09;;;;;;;1.27;0.50;;;;;;;;;;5042366;28;20897;-74
2022/02/21 14:39:38;;;;;;;1.90;0.50;;;;;;;;;;5026789;28;20038;-74
2022/02/21 14:42:04;;;;;;;3.63;1.02;;;;;;;;;;5028021;28;20039;-75
2022/02/21 14:44:32;;;;;;;0.63;0.50;;;;;;;;;;5027649;28;20068;-73
2022/02/21 14:46:59;;;;;;;0.93;0.30;;;;;;;;;;5028756;28;21686;-74
2022/02/21 14:49:25;;;;;;;3.72;0.88;;;;;;;;;;5028331;28;20039;-72